Thunder radar more information blitzortung!


Radar de pluja more information rain snow radar


Visita la nostra xarxa de llocs de meteo:

Template documentation
and downloads

And another site



No particular awareness of the weather is required.    There are no Weather-warnings

Pagina Historial Weather Underground text

Diari Resum Juliol 4, 2017 Unitats:  Tant    Imperial   Mètric
« Previous Dia
SegĂźent Dia »
Diari Setmana Mensual Anual Personalitzada
  Maxima: Minima: Media:
Temperatura: 91.4 °F /  33.0 °C 61.5 °F /  16.4 °C 79 °F /  26.1 °C
Punt de rosada: 59.4 °F /  15.2 °C 47.7 °F /  8.7 °C 52.3 °F /  11.3 °C
Humitat: 79 % 26 % 43 %
Wind Speed: 12.7 mph /  20.4 km/h - 4.5 mph /  7.2 km/h
RĂ fegues de vent: 12.7 mph /  20.4 km/h - -
Vent:- - SSW
Pression baro: 30.1 in /  1018.8 hPa 30 in /  1014.8 hPa -
Precipitacions: 0 in /  0.0 mm    
Historical Graphs
 
 
Dades de taula per Juliol 4, 2017
Temps Temperatura Punt de rosada Pression baro Vent Wind Speed RĂ fegues de vent Humitat Rainfall Rate (Hourly)
00:00 64 °F /  17.8 °C 56.3 °F /  13.5 °C 30.1 in /  1017.8 hPa Calm   1 mph /  1.6 km/h 76 % 0 in /  0.0 mm
00:01 70.5 °F /  21.4 °C 52.5 °F /  11.4 °C 30.1 in /  1018.8 hPa WSW 2.3 mph /  3.7 km/h 2.3 mph /  3.7 km/h 53 % 0 in /  0.0 mm
00:06 70.3 °F /  21.3 °C 52.3 °F /  11.3 °C 30.1 in /  1018.8 hPa West 2.3 mph /  3.7 km/h 2.3 mph /  3.7 km/h 53 % 0 in /  0.0 mm
00:10 63.7 °F /  17.6 °C 55.6 °F /  13.1 °C 30.1 in /  1017.8 hPa Calm   2 mph /  3.2 km/h 75 % 0 in /  0.0 mm
00:20 63.3 °F /  17.4 °C 55.2 °F /  12.9 °C 30.1 in /  1017.8 hPa Calm     75 % 0 in /  0.0 mm
00:30 62.8 °F /  17.1 °C 55 °F /  12.8 °C 30.1 in /  1017.8 hPa Calm   2 mph /  3.2 km/h 76 % 0 in /  0.0 mm
00:40 62.2 °F /  16.8 °C 54.7 °F /  12.6 °C 30.1 in /  1017.8 hPa WSW 1 mph /  1.6 km/h 3 mph /  4.8 km/h 76 % 0 in /  0.0 mm
00:50 61.9 °F /  16.6 °C 54.7 °F /  12.6 °C 30.1 in /  1017.8 hPa WSW 2 mph /  3.2 km/h 2 mph /  3.2 km/h 77 % 0 in /  0.0 mm
01:00 61.7 °F /  16.5 °C 54.3 °F /  12.4 °C 30.1 in /  1017.8 hPa SW 1 mph /  1.6 km/h 2 mph /  3.2 km/h 77 % 0 in /  0.0 mm
01:10 61.7 °F /  16.5 °C 54.9 °F /  12.7 °C 30.1 in /  1017.8 hPa Calm   2 mph /  3.2 km/h 78 % 0 in /  0.0 mm
01:20 61.7 °F /  16.5 °C 54.9 °F /  12.7 °C 30.1 in /  1017.8 hPa Calm   1 mph /  1.6 km/h 78 % 0 in /  0.0 mm
01:30 61.7 °F /  16.5 °C 55 °F /  12.8 °C 30.1 in /  1017.8 hPa Calm     79 % 0 in /  0.0 mm
01:40 61.7 °F /  16.5 °C 55 °F /  12.8 °C 30.1 in /  1017.8 hPa Calm     79 % 0 in /  0.0 mm
01:50 61.7 °F /  16.5 °C 55 °F /  12.8 °C 30.1 in /  1017.8 hPa Calm   1 mph /  1.6 km/h 79 % 0 in /  0.0 mm
02:00 61.5 °F /  16.4 °C 54.7 °F /  12.6 °C 30.1 in /  1017.8 hPa WSW 2 mph /  3.2 km/h 2 mph /  3.2 km/h 78 % 0 in /  0.0 mm
02:10 61.5 °F /  16.4 °C 54.7 °F /  12.6 °C 30.1 in /  1017.8 hPa SW 1 mph /  1.6 km/h 2 mph /  3.2 km/h 78 % 0 in /  0.0 mm
02:20 62.1 °F /  16.7 °C 54.3 °F /  12.4 °C 30.1 in /  1018.8 hPa SW 2 mph /  3.2 km/h 2 mph /  3.2 km/h 76 % 0 in /  0.0 mm
02:30 62.4 °F /  16.9 °C 54.9 °F /  12.7 °C 30.1 in /  1018.8 hPa Calm   2 mph /  3.2 km/h 76 % 0 in /  0.0 mm
02:40 63.5 °F /  17.5 °C 55 °F /  12.8 °C 30.1 in /  1018.8 hPa SW 1 mph /  1.6 km/h 2 mph /  3.2 km/h 74 % 0 in /  0.0 mm
02:50 64.9 °F /  18.3 °C 56.1 °F /  13.4 °C 30.1 in /  1018.8 hPa Calm   1 mph /  1.6 km/h 73 % 0 in /  0.0 mm
03:00 66.7 °F /  19.3 °C 57 °F /  13.9 °C 30.1 in /  1018.8 hPa SW 1 mph /  1.6 km/h 1 mph /  1.6 km/h 71 % 0 in /  0.0 mm
03:10 68.2 °F /  20.1 °C 57.2 °F /  14.0 °C 30.1 in /  1018.8 hPa Calm   1 mph /  1.6 km/h 68 % 0 in /  0.0 mm
03:20 68.2 °F /  20.1 °C 56.5 °F /  13.6 °C 30.1 in /  1018.8 hPa ESE 1 mph /  1.6 km/h 2 mph /  3.2 km/h 66 % 0 in /  0.0 mm
03:30 67.8 °F /  19.9 °C 56.5 °F /  13.6 °C 30.1 in /  1018.8 hPa SW 1 mph /  1.6 km/h 3 mph /  4.8 km/h 67 % 0 in /  0.0 mm
03:40 69.1 °F /  20.6 °C 56.8 °F /  13.8 °C 30.1 in /  1018.8 hPa SSW 1 mph /  1.6 km/h 2 mph /  3.2 km/h 65 % 0 in /  0.0 mm
03:50 70.2 °F /  21.2 °C 57 °F /  13.9 °C 30.1 in /  1018.8 hPa South 1 mph /  1.6 km/h 2 mph /  3.2 km/h 63 % 0 in /  0.0 mm
04:00 71.1 °F /  21.7 °C 57.4 °F /  14.1 °C 30.1 in /  1018.8 hPa SE 2 mph /  3.2 km/h 2 mph /  3.2 km/h 62 % 0 in /  0.0 mm
04:10 72 °F /  22.2 °C 57.7 °F /  14.3 °C 30.1 in /  1018.8 hPa SE 1 mph /  1.6 km/h 2 mph /  3.2 km/h 61 % 0 in /  0.0 mm
04:20 74.1 °F /  23.4 °C 59.4 °F /  15.2 °C 30.1 in /  1018.8 hPa South 1 mph /  1.6 km/h 2 mph /  3.2 km/h 60 % 0 in /  0.0 mm
04:30 74.1 °F /  23.4 °C 58.5 °F /  14.7 °C 30.1 in /  1018.8 hPa Calm   3 mph /  4.8 km/h 58 % 0 in /  0.0 mm
04:40 75.4 °F /  24.1 °C 58.6 °F /  14.8 °C 30.1 in /  1018.8 hPa NE 2 mph /  3.2 km/h 3 mph /  4.8 km/h 56 % 0 in /  0.0 mm
04:50 75.6 °F /  24.2 °C 56.7 °F /  13.7 °C 30.1 in /  1018.8 hPa ENE 2 mph /  3.2 km/h 3 mph /  4.8 km/h 52 % 0 in /  0.0 mm
05:00 76.6 °F /  24.8 °C 57.7 °F /  14.3 °C 30.1 in /  1017.8 hPa Calm   2 mph /  3.2 km/h 52 % 0 in /  0.0 mm
10:01 78.1 °F /  25.6 °C 57.9 °F /  14.4 °C 30.1 in /  1017.8 hPa West 2.3 mph /  3.7 km/h   50 % 0 in /  0.0 mm
10:06 78.8 °F /  26.0 °C 57.9 °F /  14.4 °C 30.1 in /  1017.8 hPa WSW 3.1 mph /  5.0 km/h 3.1 mph /  5.0 km/h 49 % 0 in /  0.0 mm
10:11 77.5 °F /  25.3 °C 56.3 °F /  13.5 °C 30.1 in /  1017.8 hPa SSE 3.5 mph /  5.6 km/h 3.5 mph /  5.6 km/h 48 % 0 in /  0.0 mm
10:16 78.4 °F /  25.8 °C 57 °F /  13.9 °C 30.1 in /  1017.8 hPa ESE 2.3 mph /  3.7 km/h 2.3 mph /  3.7 km/h 48 % 0 in /  0.0 mm
10:21 78.6 °F /  25.9 °C 56.7 °F /  13.7 °C 30.1 in /  1017.8 hPa NE 3.5 mph /  5.6 km/h 3.5 mph /  5.6 km/h 47 % 0 in /  0.0 mm
10:26 78.6 °F /  25.9 °C 56.7 °F /  13.7 °C 30.1 in /  1017.8 hPa ENE 1.2 mph /  1.9 km/h 1.2 mph /  1.9 km/h 47 % 0 in /  0.0 mm
10:31 79.7 °F /  26.5 °C 57 °F /  13.9 °C 30.1 in /  1017.8 hPa East 3.5 mph /  5.6 km/h 3.5 mph /  5.6 km/h 46 % 0 in /  0.0 mm
10:36 80.4 °F /  26.9 °C 57.7 °F /  14.3 °C 30.1 in /  1017.8 hPa South 2.3 mph /  3.7 km/h 2.3 mph /  3.7 km/h 46 % 0 in /  0.0 mm
10:41 81 °F /  27.2 °C 57.6 °F /  14.2 °C 30 in /  1016.8 hPa SW 2.9 mph /  4.7 km/h 2.9 mph /  4.7 km/h 45 % 0 in /  0.0 mm
10:46 80.8 °F /  27.1 °C 57.6 °F /  14.2 °C 30 in /  1016.8 hPa West 4.6 mph /  7.4 km/h 4.6 mph /  7.4 km/h 45 % 0 in /  0.0 mm
10:51 81.9 °F /  27.7 °C 57.2 °F /  14.0 °C 30 in /  1016.8 hPa SE 3.6 mph /  5.8 km/h 3.6 mph /  5.8 km/h 43 % 0 in /  0.0 mm
10:56 82.9 °F /  28.3 °C 56.8 °F /  13.8 °C 30.1 in /  1017.8 hPa SSE 4.9 mph /  7.9 km/h 4.9 mph /  7.9 km/h 41 % 0 in /  0.0 mm
11:01 82.9 °F /  28.3 °C 56.8 °F /  13.8 °C 30.1 in /  1017.8 hPa SW 2.9 mph /  4.7 km/h 2.9 mph /  4.7 km/h 41 % 0 in /  0.0 mm
11:06 83.3 °F /  28.5 °C 57 °F /  13.9 °C 30.1 in /  1017.8 hPa SW 5.8 mph /  9.3 km/h 5.8 mph /  9.3 km/h 41 % 0 in /  0.0 mm
11:11 83.5 °F /  28.6 °C 57.4 °F /  14.1 °C 30 in /  1016.8 hPa West 4.6 mph /  7.4 km/h 4.6 mph /  7.4 km/h 41 % 0 in /  0.0 mm
11:16 83.7 °F /  28.7 °C 56.8 °F /  13.8 °C 30 in /  1016.8 hPa SW 2.3 mph /  3.7 km/h 2.4 mph /  3.9 km/h 40 % 0 in /  0.0 mm
11:21 83.7 °F /  28.7 °C 55.4 °F /  13.0 °C 30 in /  1016.8 hPa SW 3.6 mph /  5.8 km/h 3.6 mph /  5.8 km/h 38 % 0 in /  0.0 mm
11:26 85.1 °F /  29.5 °C 55 °F /  12.8 °C 30.1 in /  1017.8 hPa SE 3.5 mph /  5.6 km/h 3.5 mph /  5.6 km/h 36 % 0 in /  0.0 mm
11:31 84.9 °F /  29.4 °C 55.8 °F /  13.2 °C 30.1 in /  1017.8 hPa NW 4.6 mph /  7.4 km/h 4.6 mph /  7.4 km/h 37 % 0 in /  0.0 mm
11:36 85.1 °F /  29.5 °C 55 °F /  12.8 °C 30.1 in /  1017.8 hPa NNW 4.6 mph /  7.4 km/h 4.6 mph /  7.4 km/h 36 % 0 in /  0.0 mm
11:41 86.2 °F /  30.1 °C 54.5 °F /  12.5 °C 30.1 in /  1017.8 hPa SSW 2.3 mph /  3.7 km/h 2.3 mph /  3.7 km/h 34 % 0 in /  0.0 mm
11:46 86.7 °F /  30.4 °C 55.8 °F /  13.2 °C 30.1 in /  1017.8 hPa SW 3.5 mph /  5.6 km/h 3.5 mph /  5.6 km/h 35 % 0 in /  0.0 mm
11:51 86.5 °F /  30.3 °C 54.9 °F /  12.7 °C 30.1 in /  1017.8 hPa SW 3.5 mph /  5.6 km/h 3.5 mph /  5.6 km/h 34 % 0 in /  0.0 mm
11:56 85.8 °F /  29.9 °C 55 °F /  12.8 °C 30.1 in /  1017.8 hPa SW 6 mph /  9.7 km/h 6 mph /  9.7 km/h 35 % 0 in /  0.0 mm
12:01 86.2 °F /  30.1 °C 53.8 °F /  12.1 °C 30.1 in /  1017.8 hPa WSW 2.4 mph /  3.9 km/h 2.4 mph /  3.9 km/h 33 % 0 in /  0.0 mm
12:06 86.5 °F /  30.3 °C 54 °F /  12.2 °C 30.1 in /  1017.8 hPa WSW 5.8 mph /  9.3 km/h 5.8 mph /  9.3 km/h 33 % 0 in /  0.0 mm
12:11 87.3 °F /  30.7 °C 53.8 °F /  12.1 °C 30.1 in /  1017.8 hPa SSW 3.3 mph /  5.3 km/h 3.3 mph /  5.3 km/h 32 % 0 in /  0.0 mm
12:16 88.2 °F /  31.2 °C 54.7 °F /  12.6 °C 30.1 in /  1017.8 hPa SSW 5.6 mph /  9.0 km/h 5.6 mph /  9.0 km/h 32 % 0 in /  0.0 mm
12:21 87.3 °F /  30.7 °C 51.1 °F /  10.6 °C 30.1 in /  1017.8 hPa East 5.8 mph /  9.3 km/h 5.8 mph /  9.3 km/h 29 % 0 in /  0.0 mm
12:26 87.4 °F /  30.8 °C 53.1 °F /  11.7 °C 30 in /  1016.8 hPa West 3.5 mph /  5.6 km/h 3.5 mph /  5.6 km/h 31 % 0 in /  0.0 mm
12:31 87.8 °F /  31.0 °C 52.5 °F /  11.4 °C 30 in /  1016.8 hPa SW 6.9 mph /  11.1 km/h 6.9 mph /  11.1 km/h 30 % 0 in /  0.0 mm
12:36 87.8 °F /  31.0 °C 51.6 °F /  10.9 °C 30 in /  1016.8 hPa SE 3.5 mph /  5.6 km/h 3.5 mph /  5.6 km/h 29 % 0 in /  0.0 mm
12:41 88.7 °F /  31.5 °C 53.2 °F /  11.8 °C 30 in /  1016.8 hPa WNW 2.3 mph /  3.7 km/h 2.3 mph /  3.7 km/h 30 % 0 in /  0.0 mm
12:46 88.5 °F /  31.4 °C 53.1 °F /  11.7 °C 30 in /  1016.8 hPa WSW 3.8 mph /  6.1 km/h 3.8 mph /  6.1 km/h 30 % 0 in /  0.0 mm
12:51 89.2 °F /  31.8 °C 53.8 °F /  12.1 °C 30 in /  1016.8 hPa South 2.3 mph /  3.7 km/h 2.3 mph /  3.7 km/h 30 % 0 in /  0.0 mm
12:56 88.9 °F /  31.6 °C 52.5 °F /  11.4 °C 30 in /  1016.8 hPa SSE 5.8 mph /  9.3 km/h 5.8 mph /  9.3 km/h 29 % 0 in /  0.0 mm
13:01 88.3 °F /  31.3 °C 53.1 °F /  11.7 °C 30 in /  1016.8 hPa SSE 5.8 mph /  9.3 km/h 5.8 mph /  9.3 km/h 30 % 0 in /  0.0 mm
13:06 87.8 °F /  31.0 °C 53.4 °F /  11.9 °C 30 in /  1016.8 hPa ESE 10.4 mph /  16.7 km/h 10.4 mph /  16.7 km/h 31 % 0 in /  0.0 mm
13:11 86.4 °F /  30.2 °C 54 °F /  12.2 °C 30 in /  1015.8 hPa ENE 9.7 mph /  15.6 km/h 9.7 mph /  15.6 km/h 33 % 0 in /  0.0 mm
13:16 86.2 °F /  30.1 °C 53.8 °F /  12.1 °C 30 in /  1015.8 hPa ESE 7.1 mph /  11.4 km/h 7.1 mph /  11.4 km/h 33 % 0 in /  0.0 mm
13:21 86.2 °F /  30.1 °C 53.8 °F /  12.1 °C 30 in /  1015.8 hPa SSE 9.2 mph /  14.8 km/h 9.2 mph /  14.8 km/h 33 % 0 in /  0.0 mm
13:26 86.7 °F /  30.4 °C 54.1 °F /  12.3 °C 30 in /  1015.8 hPa East 6.9 mph /  11.1 km/h 6.9 mph /  11.1 km/h 33 % 0 in /  0.0 mm
13:31 86 °F /  30.0 °C 52.7 °F /  11.5 °C 30 in /  1015.8 hPa ESE 11.5 mph /  18.5 km/h 11.5 mph /  18.5 km/h 32 % 0 in /  0.0 mm
13:32 86.2 °F /  30.1 °C 52.9 °F /  11.6 °C 30 in /  1015.8 hPa ESE 8.1 mph /  13.0 km/h 8.1 mph /  13.0 km/h 32 % 0 in /  0.0 mm
13:37 87.1 °F /  30.6 °C 53.6 °F /  12.0 °C 30 in /  1015.8 hPa ESE 8.1 mph /  13.0 km/h 8.1 mph /  13.0 km/h 32 % 0 in /  0.0 mm
13:42 87.1 °F /  30.6 °C 52.9 °F /  11.6 °C 30 in /  1015.8 hPa ESE 9.2 mph /  14.8 km/h 9.2 mph /  14.8 km/h 31 % 0 in /  0.0 mm
13:47 86.7 °F /  30.4 °C 51.6 °F /  10.9 °C 30 in /  1015.8 hPa ESE 12.7 mph /  20.4 km/h 12.7 mph /  20.4 km/h 30 % 0 in /  0.0 mm
13:52 87.4 °F /  30.8 °C 52.2 °F /  11.2 °C 30 in /  1015.8 hPa SE 7.4 mph /  11.9 km/h 7.4 mph /  11.9 km/h 30 % 0 in /  0.0 mm
13:57 88.3 °F /  31.3 °C 53.1 °F /  11.7 °C 30 in /  1015.8 hPa ESE 5.8 mph /  9.3 km/h 5.8 mph /  9.3 km/h 30 % 0 in /  0.0 mm
14:02 88.3 °F /  31.3 °C 52 °F /  11.1 °C 30 in /  1015.8 hPa WSW 5.8 mph /  9.3 km/h 5.8 mph /  9.3 km/h 29 % 0 in /  0.0 mm
14:07 89.2 °F /  31.8 °C 53.8 °F /  12.1 °C 30 in /  1015.8 hPa SSW 4.6 mph /  7.4 km/h 4.6 mph /  7.4 km/h 30 % 0 in /  0.0 mm
14:12 89.6 °F /  32.0 °C 53.1 °F /  11.7 °C 30 in /  1015.8 hPa SW 8.1 mph /  13.0 km/h 8.1 mph /  13.0 km/h 29 % 0 in /  0.0 mm
14:17 90.3 °F /  32.4 °C 53.8 °F /  12.1 °C 30 in /  1015.8 hPa WSW 4.6 mph /  7.4 km/h 4.6 mph /  7.4 km/h 29 % 0 in /  0.0 mm
14:22 90.1 °F /  32.3 °C 53.6 °F /  12.0 °C 30 in /  1015.8 hPa SSW 5.8 mph /  9.3 km/h 5.8 mph /  9.3 km/h 29 % 0 in /  0.0 mm
14:27 89.8 °F /  32.1 °C 52.3 °F /  11.3 °C 30 in /  1015.8 hPa SSW 5.8 mph /  9.3 km/h 5.8 mph /  9.3 km/h 28 % 0 in /  0.0 mm
14:32 90.3 °F /  32.4 °C 52.9 °F /  11.6 °C 30 in /  1015.8 hPa WSW 8.7 mph /  14.0 km/h 8.7 mph /  14.0 km/h 28 % 0 in /  0.0 mm
14:37 90.3 °F /  32.4 °C 52.9 °F /  11.6 °C 30 in /  1015.8 hPa SW 5.8 mph /  9.3 km/h 5.8 mph /  9.3 km/h 28 % 0 in /  0.0 mm
14:42 91.4 °F /  33.0 °C 53.8 °F /  12.1 °C 30 in /  1015.8 hPa SSE 8.1 mph /  13.0 km/h 8.1 mph /  13.0 km/h 28 % 0 in /  0.0 mm
14:47 90.9 °F /  32.7 °C 53.2 °F /  11.8 °C 30 in /  1015.8 hPa South 5.8 mph /  9.3 km/h 5.8 mph /  9.3 km/h 28 % 0 in /  0.0 mm
14:52 90.7 °F /  32.6 °C 53.1 °F /  11.7 °C 30 in /  1015.8 hPa SW 8.1 mph /  13.0 km/h 8.1 mph /  13.0 km/h 28 % 0 in /  0.0 mm
14:57 90.3 °F /  32.4 °C 52.9 °F /  11.6 °C 30 in /  1015.8 hPa South 10.4 mph /  16.7 km/h 10.4 mph /  16.7 km/h 28 % 0 in /  0.0 mm
15:02 89.6 °F /  32.0 °C 52.2 °F /  11.2 °C 30 in /  1015.8 hPa SW 10.4 mph /  16.7 km/h 10.4 mph /  16.7 km/h 28 % 0 in /  0.0 mm
15:07 90 °F /  32.2 °C 52.5 °F /  11.4 °C 30 in /  1015.8 hPa SW 5.8 mph /  9.3 km/h 5.8 mph /  9.3 km/h 28 % 0 in /  0.0 mm
15:12 89.8 °F /  32.1 °C 52.3 °F /  11.3 °C 30 in /  1015.8 hPa SW 8.1 mph /  13.0 km/h 8.1 mph /  13.0 km/h 28 % 0 in /  0.0 mm
15:17 90 °F /  32.2 °C 52.5 °F /  11.4 °C 30 in /  1015.8 hPa SW 9.2 mph /  14.8 km/h 9.2 mph /  14.8 km/h 28 % 0 in /  0.0 mm
15:22 89.6 °F /  32.0 °C 52.2 °F /  11.2 °C 30 in /  1015.8 hPa SSW 11.5 mph /  18.5 km/h 11.5 mph /  18.5 km/h 28 % 0 in /  0.0 mm
15:27 89.6 °F /  32.0 °C 52.2 °F /  11.2 °C 30 in /  1015.8 hPa SSW 6 mph /  9.7 km/h 6 mph /  9.7 km/h 28 % 0 in /  0.0 mm
15:32 90.1 °F /  32.3 °C 52.5 °F /  11.4 °C 30 in /  1015.8 hPa WSW 9.2 mph /  14.8 km/h 9.2 mph /  14.8 km/h 28 % 0 in /  0.0 mm
15:37 91.2 °F /  32.9 °C 53.6 °F /  12.0 °C 30 in /  1015.8 hPa SSW 4.6 mph /  7.4 km/h 4.6 mph /  7.4 km/h 28 % 0 in /  0.0 mm
15:42 90.9 °F /  32.7 °C 52.3 °F /  11.3 °C 30 in /  1015.8 hPa ESE 5.8 mph /  9.3 km/h 5.8 mph /  9.3 km/h 27 % 0 in /  0.0 mm
15:47 91.4 °F /  33.0 °C 52.7 °F /  11.5 °C 30 in /  1015.8 hPa SSW 7.4 mph /  11.9 km/h 7.4 mph /  11.9 km/h 27 % 0 in /  0.0 mm
15:52 90.5 °F /  32.5 °C 52 °F /  11.1 °C 30 in /  1015.8 hPa South 5.8 mph /  9.3 km/h 5.8 mph /  9.3 km/h 27 % 0 in /  0.0 mm
15:57 91 °F /  32.8 °C 52.3 °F /  11.3 °C 30 in /  1015.8 hPa SSE 5.8 mph /  9.3 km/h 5.8 mph /  9.3 km/h 27 % 0 in /  0.0 mm
16:02 91.4 °F /  33.0 °C 52.7 °F /  11.5 °C 30 in /  1015.8 hPa South 5.9 mph /  9.5 km/h 5.9 mph /  9.5 km/h 27 % 0 in /  0.0 mm
16:07 89.8 °F /  32.1 °C 51.3 °F /  10.7 °C 30 in /  1015.8 hPa SSE 9.2 mph /  14.8 km/h 9.2 mph /  14.8 km/h 27 % 0 in /  0.0 mm
16:12 90.7 °F /  32.6 °C 52.2 °F /  11.2 °C 30 in /  1015.8 hPa WSW 4.6 mph /  7.4 km/h 4.6 mph /  7.4 km/h 27 % 0 in /  0.0 mm
16:17 89.4 °F /  31.9 °C 51.1 °F /  10.6 °C 30 in /  1015.8 hPa SW 11.5 mph /  18.5 km/h 11.5 mph /  18.5 km/h 27 % 0 in /  0.0 mm
16:22 89.2 °F /  31.8 °C 52 °F /  11.1 °C 30 in /  1015.8 hPa SSW 7.1 mph /  11.4 km/h 7.1 mph /  11.4 km/h 28 % 0 in /  0.0 mm
16:27 89.8 °F /  32.1 °C 51.3 °F /  10.7 °C 30 in /  1015.8 hPa WSW 10.9 mph /  17.5 km/h 10.9 mph /  17.5 km/h 27 % 0 in /  0.0 mm
16:28 89.6 °F /  32.0 °C 51.3 °F /  10.7 °C 30 in /  1015.8 hPa SSW 11.5 mph /  18.5 km/h 11.5 mph /  18.5 km/h 27 % 0 in /  0.0 mm
16:33 89.4 °F /  31.9 °C 52 °F /  11.1 °C 30 in /  1015.8 hPa West 8.1 mph /  13.0 km/h 8.1 mph /  13.0 km/h 28 % 0 in /  0.0 mm
16:38 89.6 °F /  32.0 °C 51.3 °F /  10.7 °C 30 in /  1015.8 hPa South 6 mph /  9.7 km/h 6 mph /  9.7 km/h 27 % 0 in /  0.0 mm
16:43 89.6 °F /  32.0 °C 51.3 °F /  10.7 °C 30 in /  1015.8 hPa South 6.9 mph /  11.1 km/h 6.9 mph /  11.1 km/h 27 % 0 in /  0.0 mm
16:48 89.1 °F /  31.7 °C 51.6 °F /  10.9 °C 30 in /  1015.8 hPa SW 10.4 mph /  16.7 km/h 10.4 mph /  16.7 km/h 28 % 0 in /  0.0 mm
16:53 89.8 °F /  32.1 °C 51.3 °F /  10.7 °C 30 in /  1015.8 hPa SW 8.1 mph /  13.0 km/h 8.1 mph /  13.0 km/h 27 % 0 in /  0.0 mm
16:58 89.8 °F /  32.1 °C 51.3 °F /  10.7 °C 30 in /  1015.8 hPa SW 5.8 mph /  9.3 km/h 5.8 mph /  9.3 km/h 27 % 0 in /  0.0 mm
17:03 90 °F /  32.2 °C 51.4 °F /  10.8 °C 30 in /  1015.8 hPa SW 5.6 mph /  9.0 km/h 5.6 mph /  9.0 km/h 27 % 0 in /  0.0 mm
17:08 90 °F /  32.2 °C 51.4 °F /  10.8 °C 30 in /  1015.8 hPa SW 6.4 mph /  10.3 km/h 6.4 mph /  10.3 km/h 27 % 0 in /  0.0 mm
17:13 90 °F /  32.2 °C 51.4 °F /  10.8 °C 30 in /  1015.8 hPa SW 3.5 mph /  5.6 km/h 4 mph /  6.4 km/h 27 % 0 in /  0.0 mm
17:18 90.1 °F /  32.3 °C 51.6 °F /  10.9 °C 30 in /  1015.8 hPa WSW 8.1 mph /  13.0 km/h 8.1 mph /  13.0 km/h 27 % 0 in /  0.0 mm
17:23 89.2 °F /  31.8 °C 50.9 °F /  10.5 °C 30 in /  1015.8 hPa SSE 5.8 mph /  9.3 km/h 5.8 mph /  9.3 km/h 27 % 0 in /  0.0 mm
17:28 89.8 °F /  32.1 °C 50.4 °F /  10.2 °C 30 in /  1015.8 hPa West 4.3 mph /  6.9 km/h 4.3 mph /  6.9 km/h 26 % 0 in /  0.0 mm
17:33 89.8 °F /  32.1 °C 51.3 °F /  10.7 °C 30 in /  1015.8 hPa SW 5.8 mph /  9.3 km/h 5.8 mph /  9.3 km/h 27 % 0 in /  0.0 mm
17:38 88.7 °F /  31.5 °C 50.4 °F /  10.2 °C 30 in /  1015.8 hPa SW 9.2 mph /  14.8 km/h 9.2 mph /  14.8 km/h 27 % 0 in /  0.0 mm
17:43 88.3 °F /  31.3 °C 50.2 °F /  10.1 °C 30 in /  1014.8 hPa SW 7.8 mph /  12.6 km/h 7.8 mph /  12.6 km/h 27 % 0 in /  0.0 mm
17:48 88 °F /  31.1 °C 49.8 °F /  9.9 °C 30 in /  1014.8 hPa SSW 5.8 mph /  9.3 km/h 6.2 mph /  10.0 km/h 27 % 0 in /  0.0 mm
17:53 88.3 °F /  31.3 °C 50.2 °F /  10.1 °C 30 in /  1014.8 hPa WSW 5.4 mph /  8.7 km/h 5.4 mph /  8.7 km/h 27 % 0 in /  0.0 mm
17:54 88.3 °F /  31.3 °C 50.2 °F /  10.1 °C 30 in /  1014.8 hPa South 3.5 mph /  5.6 km/h 3.5 mph /  5.6 km/h 27 % 0 in /  0.0 mm
17:59 87.8 °F /  31.0 °C 50.5 °F /  10.3 °C 30 in /  1014.8 hPa SSW 9.2 mph /  14.8 km/h 9.2 mph /  14.8 km/h 28 % 0 in /  0.0 mm
18:04 88.3 °F /  31.3 °C 51.1 °F /  10.6 °C 30 in /  1014.8 hPa SW 5.8 mph /  9.3 km/h 5.8 mph /  9.3 km/h 28 % 0 in /  0.0 mm
18:09 88.5 °F /  31.4 °C 51.3 °F /  10.7 °C 30 in /  1014.8 hPa SSW 7.4 mph /  11.9 km/h 7.4 mph /  11.9 km/h 28 % 0 in /  0.0 mm
18:14 88.5 °F /  31.4 °C 51.3 °F /  10.7 °C 30 in /  1014.8 hPa SSW 6.4 mph /  10.3 km/h 6.4 mph /  10.3 km/h 28 % 0 in /  0.0 mm
18:19 87.4 °F /  30.8 °C 50.4 °F /  10.2 °C 30 in /  1014.8 hPa SW 10 mph /  16.1 km/h 10 mph /  16.1 km/h 28 % 0 in /  0.0 mm
18:24 86.5 °F /  30.3 °C 49.6 °F /  9.8 °C 30 in /  1014.8 hPa SW 6.2 mph /  10.0 km/h 6.2 mph /  10.0 km/h 28 % 0 in /  0.0 mm
18:29 86.7 °F /  30.4 °C 49.6 °F /  9.8 °C 30 in /  1014.8 hPa West 7.1 mph /  11.4 km/h 7.1 mph /  11.4 km/h 28 % 0 in /  0.0 mm
18:34 86.5 °F /  30.3 °C 49.6 °F /  9.8 °C 30 in /  1014.8 hPa SSW 8.1 mph /  13.0 km/h 8.1 mph /  13.0 km/h 28 % 0 in /  0.0 mm
18:39 85.8 °F /  29.9 °C 48.9 °F /  9.4 °C 30 in /  1014.8 hPa WSW 9.2 mph /  14.8 km/h 9.2 mph /  14.8 km/h 28 % 0 in /  0.0 mm
18:44 86 °F /  30.0 °C 49.1 °F /  9.5 °C 30 in /  1014.8 hPa SW 12.7 mph /  20.4 km/h 12.7 mph /  20.4 km/h 28 % 0 in /  0.0 mm
18:49 85.8 °F /  29.9 °C 48.9 °F /  9.4 °C 30 in /  1014.8 hPa SW 6.9 mph /  11.1 km/h 6.9 mph /  11.1 km/h 28 % 0 in /  0.0 mm
18:54 85.1 °F /  29.5 °C 48.4 °F /  9.1 °C 30 in /  1014.8 hPa SW 10.4 mph /  16.7 km/h 10.4 mph /  16.7 km/h 28 % 0 in /  0.0 mm
18:59 85.3 °F /  29.6 °C 48.6 °F /  9.2 °C 30 in /  1014.8 hPa SW 9.2 mph /  14.8 km/h 9.2 mph /  14.8 km/h 28 % 0 in /  0.0 mm
19:04 84.6 °F /  29.2 °C 47.8 °F /  8.8 °C 30 in /  1014.8 hPa SW 9.2 mph /  14.8 km/h 9.2 mph /  14.8 km/h 28 % 0 in /  0.0 mm
19:09 84.4 °F /  29.1 °C 47.7 °F /  8.7 °C 30 in /  1014.8 hPa SW 7.8 mph /  12.6 km/h 7.8 mph /  12.6 km/h 28 % 0 in /  0.0 mm
19:14 84.2 °F /  29.0 °C 47.7 °F /  8.7 °C 30 in /  1014.8 hPa SW 5.8 mph /  9.3 km/h 5.8 mph /  9.3 km/h 28 % 0 in /  0.0 mm
19:19 84.9 °F /  29.4 °C 49.1 °F /  9.5 °C 30 in /  1014.8 hPa South 5.8 mph /  9.3 km/h 5.8 mph /  9.3 km/h 29 % 0 in /  0.0 mm
19:20 70.2 °F /  21.2 °C 52.2 °F /  11.2 °C 30 in /  1016.8 hPa Calm   1 mph /  1.6 km/h 53 % 0 in /  0.0 mm
19:24 84.7 °F /  29.3 °C 48.9 °F /  9.4 °C 30 in /  1014.8 hPa WSW 3.6 mph /  5.8 km/h 3.6 mph /  5.8 km/h 29 % 0 in /  0.0 mm
19:29 83.8 °F /  28.8 °C 49.1 °F /  9.5 °C 30 in /  1014.8 hPa SW 8.1 mph /  13.0 km/h 8.1 mph /  13.0 km/h 30 % 0 in /  0.0 mm
19:30 69.8 °F /  21.0 °C 52.3 °F /  11.3 °C 30 in /  1015.8 hPa WNW 1 mph /  1.6 km/h 1 mph /  1.6 km/h 54 % 0 in /  0.0 mm
19:34 83.5 °F /  28.6 °C 48.7 °F /  9.3 °C 30 in /  1014.8 hPa SW 6.4 mph /  10.3 km/h 6.4 mph /  10.3 km/h 30 % 0 in /  0.0 mm
19:35 69.6 °F /  20.9 °C 52.7 °F /  11.5 °C 30 in /  1015.8 hPa Calm     55 % 0 in /  0.0 mm
19:39 83.1 °F /  28.4 °C 48.6 °F /  9.2 °C 30 in /  1014.8 hPa SW 5.8 mph /  9.3 km/h 5.8 mph /  9.3 km/h 30 % 0 in /  0.0 mm
19:44 82.9 °F /  28.3 °C 48.4 °F /  9.1 °C 30 in /  1015.8 hPa SW 10.4 mph /  16.7 km/h 10.4 mph /  16.7 km/h 30 % 0 in /  0.0 mm
19:45 69.3 °F /  20.7 °C 52.3 °F /  11.3 °C 30 in /  1015.8 hPa Calm   1 mph /  1.6 km/h 55 % 0 in /  0.0 mm
19:49 82.4 °F /  28.0 °C 47.8 °F /  8.8 °C 30 in /  1015.8 hPa WSW 5.8 mph /  9.3 km/h 5.8 mph /  9.3 km/h 30 % 0 in /  0.0 mm
19:54 82.4 °F /  28.0 °C 47.8 °F /  8.8 °C 30 in /  1015.8 hPa South 5.8 mph /  9.3 km/h 5.8 mph /  9.3 km/h 30 % 0 in /  0.0 mm
19:59 82 °F /  27.8 °C 48.4 °F /  9.1 °C 30 in /  1014.8 hPa WSW 9.2 mph /  14.8 km/h 9.2 mph /  14.8 km/h 31 % 0 in /  0.0 mm
20:04 81.7 °F /  27.6 °C 48 °F /  8.9 °C 30 in /  1014.8 hPa SSW 7.1 mph /  11.4 km/h 7.1 mph /  11.4 km/h 31 % 0 in /  0.0 mm
20:05 68.5 °F /  20.3 °C 52.7 °F /  11.5 °C 30 in /  1015.8 hPa Calm     57 % 0 in /  0.0 mm
20:09 81.7 °F /  27.6 °C 48.9 °F /  9.4 °C 30 in /  1014.8 hPa SSW 5.6 mph /  9.0 km/h 5.6 mph /  9.0 km/h 32 % 0 in /  0.0 mm
20:10 68.2 °F /  20.1 °C 52.3 °F /  11.3 °C 30 in /  1015.8 hPa Calm     57 % 0 in /  0.0 mm
20:14 81 °F /  27.2 °C 48.4 °F /  9.1 °C 30 in /  1015.8 hPa SW 5.8 mph /  9.3 km/h 5.8 mph /  9.3 km/h 32 % 0 in /  0.0 mm
20:15 68 °F /  20.0 °C 52.7 °F /  11.5 °C 30 in /  1015.8 hPa Calm     58 % 0 in /  0.0 mm
20:19 80.6 °F /  27.0 °C 48 °F /  8.9 °C 30 in /  1015.8 hPa South 5.8 mph /  9.3 km/h 5.8 mph /  9.3 km/h 32 % 0 in /  0.0 mm
20:24 80.6 °F /  27.0 °C 48 °F /  8.9 °C 30 in /  1015.8 hPa SSE 5.8 mph /  9.3 km/h 5.8 mph /  9.3 km/h 32 % 0 in /  0.0 mm
20:25 67.5 °F /  19.7 °C 52.5 °F /  11.4 °C 30 in /  1015.8 hPa West 1 mph /  1.6 km/h 1 mph /  1.6 km/h 59 % 0 in /  0.0 mm
20:29 80.1 °F /  26.7 °C 48.4 °F /  9.1 °C 30 in /  1015.8 hPa SW 3.5 mph /  5.6 km/h 3.5 mph /  5.6 km/h 33 % 0 in /  0.0 mm
20:34 79.7 °F /  26.5 °C 48.7 °F /  9.3 °C 30 in /  1015.8 hPa SW 8.1 mph /  13.0 km/h 8.1 mph /  13.0 km/h 34 % 0 in /  0.0 mm
20:35 67.1 °F /  19.5 °C 52.3 °F /  11.3 °C 30 in /  1015.8 hPa WSW 1 mph /  1.6 km/h 2 mph /  3.2 km/h 59 % 0 in /  0.0 mm
20:39 79.3 °F /  26.3 °C 48.6 °F /  9.2 °C 30 in /  1015.8 hPa SW 6.9 mph /  11.1 km/h 6.9 mph /  11.1 km/h 34 % 0 in /  0.0 mm
20:44 78.8 °F /  26.0 °C 48 °F /  8.9 °C 30 in /  1015.8 hPa WSW 9.2 mph /  14.8 km/h 9.2 mph /  14.8 km/h 34 % 0 in /  0.0 mm
20:45 66.6 °F /  19.2 °C 52.2 °F /  11.2 °C 30 in /  1015.8 hPa Calm   2 mph /  3.2 km/h 60 % 0 in /  0.0 mm
20:49 78.6 °F /  25.9 °C 47.8 °F /  8.8 °C 30 in /  1015.8 hPa WSW 3.5 mph /  5.6 km/h 3.5 mph /  5.6 km/h 34 % 0 in /  0.0 mm
20:54 78.3 °F /  25.7 °C 47.7 °F /  8.7 °C 30 in /  1015.8 hPa SW 6.9 mph /  11.1 km/h 6.9 mph /  11.1 km/h 34 % 0 in /  0.0 mm
20:55 66.4 °F /  19.1 °C 52.2 °F /  11.2 °C 30 in /  1015.8 hPa Calm   2 mph /  3.2 km/h 60 % 0 in /  0.0 mm
20:59 77.9 °F /  25.5 °C 48 °F /  8.9 °C 30 in /  1015.8 hPa SSW 5.8 mph /  9.3 km/h 5.8 mph /  9.3 km/h 35 % 0 in /  0.0 mm
21:04 77.7 °F /  25.4 °C 47.8 °F /  8.8 °C 30 in /  1015.8 hPa SSW 5.8 mph /  9.3 km/h 5.8 mph /  9.3 km/h 35 % 0 in /  0.0 mm
21:05 66.4 °F /  19.1 °C 52.5 °F /  11.4 °C 30 in /  1015.8 hPa WSW 2 mph /  3.2 km/h 2 mph /  3.2 km/h 61 % 0 in /  0.0 mm
21:09 77.4 °F /  25.2 °C 47.7 °F /  8.7 °C 30 in /  1015.8 hPa SW 8.1 mph /  13.0 km/h 8.1 mph /  13.0 km/h 35 % 0 in /  0.0 mm
21:14 77.2 °F /  25.1 °C 48.2 °F /  9.0 °C 30 in /  1015.8 hPa WSW 4.6 mph /  7.4 km/h 4.6 mph /  7.4 km/h 36 % 0 in /  0.0 mm
21:15 66.2 °F /  19.0 °C 52.3 °F /  11.3 °C 30 in /  1015.8 hPa NE 2 mph /  3.2 km/h 2 mph /  3.2 km/h 61 % 0 in /  0.0 mm
21:19 76.8 °F /  24.9 °C 48.6 °F /  9.2 °C 30 in /  1015.8 hPa SW 6.9 mph /  11.1 km/h 6.9 mph /  11.1 km/h 37 % 0 in /  0.0 mm
21:24 76.5 °F /  24.7 °C 48.2 °F /  9.0 °C 30 in /  1015.8 hPa SSW 6.9 mph /  11.1 km/h 6.9 mph /  11.1 km/h 37 % 0 in /  0.0 mm
21:25 66.2 °F /  19.0 °C 52.3 °F /  11.3 °C 30 in /  1015.8 hPa NE 1 mph /  1.6 km/h 2 mph /  3.2 km/h 61 % 0 in /  0.0 mm
21:29 76.3 °F /  24.6 °C 48.7 °F /  9.3 °C 30 in /  1015.8 hPa SW 5.8 mph /  9.3 km/h 5.8 mph /  9.3 km/h 38 % 0 in /  0.0 mm
21:34 75.9 °F /  24.4 °C 48.6 °F /  9.2 °C 30 in /  1015.8 hPa WSW 5.8 mph /  9.3 km/h 5.8 mph /  9.3 km/h 38 % 0 in /  0.0 mm
21:35 75.9 °F /  24.4 °C 48.6 °F /  9.2 °C 30 in /  1015.8 hPa WSW 4.6 mph /  7.4 km/h 4.6 mph /  7.4 km/h 38 % 0 in /  0.0 mm
21:39 75.7 °F /  24.3 °C 48.9 °F /  9.4 °C 30 in /  1015.8 hPa WSW 5.8 mph /  9.3 km/h 5.8 mph /  9.3 km/h 39 % 0 in /  0.0 mm
21:44 75.4 °F /  24.1 °C 48.7 °F /  9.3 °C 30 in /  1015.8 hPa SW 6.9 mph /  11.1 km/h 6.9 mph /  11.1 km/h 39 % 0 in /  0.0 mm
21:45 65.5 °F /  18.6 °C 52.2 °F /  11.2 °C 30 in /  1015.8 hPa Calm   1 mph /  1.6 km/h 62 % 0 in /  0.0 mm
21:49 75.2 °F /  24.0 °C 49.3 °F /  9.6 °C 30 in /  1015.8 hPa SW 5.8 mph /  9.3 km/h 5.8 mph /  9.3 km/h 40 % 0 in /  0.0 mm
21:54 74.8 °F /  23.8 °C 48.9 °F /  9.4 °C 30 in /  1015.8 hPa SW 5.9 mph /  9.5 km/h 5.9 mph /  9.5 km/h 40 % 0 in /  0.0 mm
21:55 65.1 °F /  18.4 °C 52.2 °F /  11.2 °C 30 in /  1015.8 hPa Calm     63 % 0 in /  0.0 mm
21:59 74.7 °F /  23.7 °C 49.5 °F /  9.7 °C 30 in /  1015.8 hPa SW 3.5 mph /  5.6 km/h 3.5 mph /  5.6 km/h 41 % 0 in /  0.0 mm
22:04 74.3 °F /  23.5 °C 49.1 °F /  9.5 °C 30 in /  1015.8 hPa SW 5.8 mph /  9.3 km/h 5.8 mph /  9.3 km/h 41 % 0 in /  0.0 mm
22:05 64.6 °F /  18.1 °C 52.2 °F /  11.2 °C 30 in /  1014.8 hPa Calm     64 % 0 in /  0.0 mm
22:09 74.1 °F /  23.4 °C 49.6 °F /  9.8 °C 30 in /  1015.8 hPa WSW 4.3 mph /  6.9 km/h 4.3 mph /  6.9 km/h 42 % 0 in /  0.0 mm
22:14 73.8 °F /  23.2 °C 49.8 °F /  9.9 °C 30 in /  1015.8 hPa SW 5.8 mph /  9.3 km/h 5.8 mph /  9.3 km/h 43 % 0 in /  0.0 mm
22:15 64.2 °F /  17.9 °C 51.8 °F /  11.0 °C 30 in /  1015.8 hPa SW 1 mph /  1.6 km/h 1 mph /  1.6 km/h 64 % 0 in /  0.0 mm
22:19 73.6 °F /  23.1 °C 50.4 °F /  10.2 °C 30 in /  1015.8 hPa SW 3.5 mph /  5.6 km/h 3.5 mph /  5.6 km/h 44 % 0 in /  0.0 mm
22:24 73.4 °F /  23.0 °C 50.7 °F /  10.4 °C 30 in /  1015.8 hPa WSW 4.9 mph /  7.9 km/h 4.9 mph /  7.9 km/h 45 % 0 in /  0.0 mm
22:25 63.9 °F /  17.7 °C 52 °F /  11.1 °C 30 in /  1015.8 hPa Calm     65 % 0 in /  0.0 mm
22:29 73.2 °F /  22.9 °C 51.3 °F /  10.7 °C 30 in /  1015.8 hPa WSW 3.6 mph /  5.8 km/h 3.6 mph /  5.8 km/h 46 % 0 in /  0.0 mm
22:34 73 °F /  22.8 °C 51.6 °F /  10.9 °C 30 in /  1015.8 hPa SW 3.5 mph /  5.6 km/h 3.5 mph /  5.6 km/h 47 % 0 in /  0.0 mm
22:35 63.7 °F /  17.6 °C 52.2 °F /  11.2 °C 30 in /  1014.8 hPa Calm     66 % 0 in /  0.0 mm
22:39 72.9 °F /  22.7 °C 51.4 °F /  10.8 °C 30 in /  1015.8 hPa SW 2.3 mph /  3.7 km/h 2.9 mph /  4.7 km/h 47 % 0 in /  0.0 mm
22:44 72.5 °F /  22.5 °C 51.6 °F /  10.9 °C 30 in /  1015.8 hPa SW 2.3 mph /  3.7 km/h 2.3 mph /  3.7 km/h 48 % 0 in /  0.0 mm
22:45 63.3 °F /  17.4 °C 51.8 °F /  11.0 °C 30 in /  1016.8 hPa Calm     66 % 0 in /  0.0 mm
22:49 72.3 °F /  22.4 °C 52.2 °F /  11.2 °C 30 in /  1015.8 hPa SW 2.3 mph /  3.7 km/h 2.3 mph /  3.7 km/h 49 % 0 in /  0.0 mm
22:54 72.1 °F /  22.3 °C 52 °F /  11.1 °C 30 in /  1015.8 hPa SSW 2.6 mph /  4.2 km/h 2.6 mph /  4.2 km/h 49 % 0 in /  0.0 mm
22:55 63.3 °F /  17.4 °C 51.8 °F /  11.0 °C 30 in /  1016.8 hPa Calm     66 % 0 in /  0.0 mm
22:59 72.1 °F /  22.3 °C 52 °F /  11.1 °C 30 in /  1015.8 hPa WSW 2.3 mph /  3.7 km/h 2.3 mph /  3.7 km/h 49 % 0 in /  0.0 mm
23:04 72 °F /  22.2 °C 52.3 °F /  11.3 °C 30 in /  1015.8 hPa WSW 2.3 mph /  3.7 km/h 2.3 mph /  3.7 km/h 50 % 0 in /  0.0 mm
23:05 63.1 °F /  17.3 °C 52 °F /  11.1 °C 30 in /  1015.8 hPa Calm     67 % 0 in /  0.0 mm
23:09 71.8 °F /  22.1 °C 52.2 °F /  11.2 °C 30 in /  1015.8 hPa WNW 1.2 mph /  1.9 km/h 1.2 mph /  1.9 km/h 50 % 0 in /  0.0 mm
23:14 71.8 °F /  22.1 °C 52.2 °F /  11.2 °C 30 in /  1015.8 hPa SW 2.3 mph /  3.7 km/h 2.3 mph /  3.7 km/h 50 % 0 in /  0.0 mm
23:15 63 °F /  17.2 °C 51.8 °F /  11.0 °C 30 in /  1015.8 hPa Calm     67 % 0 in /  0.0 mm
23:19 71.6 °F /  22.0 °C 52 °F /  11.1 °C 30 in /  1015.8 hPa WSW 2.3 mph /  3.7 km/h 2.3 mph /  3.7 km/h 50 % 0 in /  0.0 mm
23:24 71.6 °F /  22.0 °C 52.5 °F /  11.4 °C 30 in /  1015.8 hPa NNW 0.9 mph /  1.4 km/h   51 % 0 in /  0.0 mm
23:25 62.8 °F /  17.1 °C 51.6 °F /  10.9 °C 30 in /  1015.8 hPa Calm     67 % 0 in /  0.0 mm
23:29 71.4 °F /  21.9 °C 52.3 °F /  11.3 °C 30 in /  1015.8 hPa WSW 2.3 mph /  3.7 km/h 2.3 mph /  3.7 km/h 51 % 0 in /  0.0 mm
23:34 71.4 °F /  21.9 °C 52.3 °F /  11.3 °C 30 in /  1015.8 hPa WSW 1.2 mph /  1.9 km/h   51 % 0 in /  0.0 mm
23:35 62.8 °F /  17.1 °C 51.6 °F /  10.9 °C 30 in /  1015.8 hPa Calm     67 % 0 in /  0.0 mm
23:39 71.2 °F /  21.8 °C 52.7 °F /  11.5 °C 30 in /  1015.8 hPa West 1.2 mph /  1.9 km/h   52 % 0 in /  0.0 mm
23:44 71.2 °F /  21.8 °C 52.7 °F /  11.5 °C 30 in /  1015.8 hPa WSW 2.3 mph /  3.7 km/h 2.3 mph /  3.7 km/h 52 % 0 in /  0.0 mm
23:45 62.2 °F /  16.8 °C 51.4 °F /  10.8 °C 30 in /  1015.8 hPa Calm   1 mph /  1.6 km/h 68 % 0 in /  0.0 mm
23:49 71.1 °F /  21.7 °C 52.5 °F /  11.4 °C 30 in /  1015.8 hPa WNW 1.2 mph /  1.9 km/h 1.2 mph /  1.9 km/h 52 % 0 in /  0.0 mm
23:54 71.1 °F /  21.7 °C 52.5 °F /  11.4 °C 30 in /  1015.8 hPa West 2.3 mph /  3.7 km/h 2.3 mph /  3.7 km/h 52 % 0 in /  0.0 mm
23:55 62.1 °F /  16.7 °C 51.8 °F /  11.0 °C 30 in /  1015.8 hPa Calm     69 % 0 in /  0.0 mm
23:59 70.9 °F /  21.6 °C 52.9 °F /  11.6 °C 30 in /  1015.8 hPa West 0.9 mph /  1.4 km/h   53 % 0 in /  0.0 mm
Meteo Sesrovires
Elogis d' Weather Underground - 3.75 mb

Guio original per  Jim McMurry - jmcmurry@mwt.net Adaptat per a la plantilla per  Wim van der Kuil - Leuven-Template.eu

Trobareu la nostra informacio del temps tambe a:

Weather Underground

AWEKAS